Baltia — 9HMG9 — position and weather

sailwx.info

Track history (hours):
 
Tides and Currents Weather Stations Pressure Air Temp Water Temp Dewpoint Dewpoint Depression Visibility Wind Speed Wind Dir Waves Ship Positions

Baltia

Last reported at 2017-Sep-24 01:49 UTC. Time now 2017-Sep-24 03:29 UTC.
Position N 31°05' E 122°30'.

Length 224 m; draft 7 m.

Type: Cargo ship. MMSI: 249174000.

Date/timePositionNaut miles runAvg speedWind from/ knotsBaromVisibWave heightAir tempDewpointWater temp
2017-Sep-24 01:49N 31°05' E 122°30'2 7.3
2017-Sep-24 01:30N 31°05' E 122°28'2 4.2
2017-Sep-24 01:00N 31°06' E 122°25'4 9.0
2017-Sep-24 00:31N 31°06' E 122°20'612.2
2017-Sep-24 00:00N 31°09' E 122°14'714.5
2017-Sep-23 23:30N 31°13' E 122°07'714.2
2017-Sep-23 23:00N 31°15' E 121°59'714.9
2017-Sep-23 22:30N 31°17' E 121°50'713.1
2017-Sep-23 22:00N 31°19' E 121°43'611.8
2017-Sep-23 21:30N 31°22' E 121°37'611.5
2017-Sep-23 21:00N 31°25' E 121°31'4 9.0
2017-Sep-23 20:30N 31°28' E 121°27'611.5
2017-Sep-23 20:00N 31°31' E 121°22'  
2017-Sep-18 07:14N 32°06' E 119°55'311.3
2017-Sep-18 06:59N 32°03' E 119°56'510.9
2017-Sep-18 06:29N 31°59' E 120°00'510.8
2017-Sep-18 06:00N 31°57' E 120°06'4 9.1
2017-Sep-18 05:30N 31°56' E 120°11'4 8.1
2017-Sep-18 05:00N 31°57' E 120°16'4 8.1
2017-Sep-18 04:29N 31°59' E 120°20'4 8.3
2017-Sep-18 03:59N 32°01' E 120°24'4 7.4
2017-Sep-18 03:29N 32°02' E 120°29'4 7.9
2017-Sep-18 02:58N 32°01' E 120°33'4 7.6
2017-Sep-18 02:27N 31°60' E 120°38'12 5.9
2017-Sep-18 00:23N 31°57' E 120°52'12 6.9
2017-Sep-17 22:43N 31°47' E 120°57'1 6.5
2017-Sep-17 22:30N 31°47' E 120°59'3 6.1
2017-Sep-17 22:01N 31°46' E 121°02'4 7.0
2017-Sep-17 21:30N 31°45' E 121°06'3 6.8
2017-Sep-17 21:01N 31°42' E 121°09'4 7.1
2017-Sep-17 20:31N 31°40' E 121°12'4 7.4
2017-Sep-17 20:00N 31°38' E 121°15'4 7.7
2017-Sep-17 19:30N 31°35' E 121°18'4 7.9
2017-Sep-17 19:01N 31°32' E 121°22'4 8.8
2017-Sep-17 18:30N 31°30' E 121°26'4 8.8
2017-Sep-17 18:01N 31°26' E 121°29'3 6.0
2017-Sep-17 17:30N 31°25' E 121°32'5 9.2
2017-Sep-17 17:00N 31°22' E 121°37'5 9.8
2017-Sep-17 16:30N 31°20' E 121°42'5 9.3
2017-Sep-17 16:00N 31°18' E 121°47'5 9.6
2017-Sep-17 15:30N 31°16' E 121°52'510.2
2017-Sep-17 15:01N 31°15' E 121°58'510.1
2017-Sep-17 14:30N 31°14' E 122°04'5 9.3
2017-Sep-17 14:00N 31°12' E 122°09'510.5
2017-Sep-17 13:31N 31°09' E 122°14'510.3
2017-Sep-17 13:00N 31°06' E 122°19'4 7.5
2017-Sep-17 12:30N 31°07' E 122°23'  
Track history (hours):
 
Tides and Currents Weather Stations Pressure Air Temp Water Temp Dewpoint Dewpoint Depression Visibility Wind Speed Wind Dir Waves Ship Positions

Baltia

Last reported at 2017-Sep-24 01:49 UTC. Time now 2017-Sep-24 03:29 UTC.
Position N 31°05' E 122°30'.

Length 224 m; draft 7 m.

Type: Cargo ship. MMSI: 249174000.

Date/timePositionNaut miles runAvg speedWind from/ knotsBaromVisibWave heightAir tempDewpointWater temp
2017-Sep-24 01:49N 31°05' E 122°30'2 7.3
2017-Sep-24 01:30N 31°05' E 122°28'2 4.2
2017-Sep-24 01:00N 31°06' E 122°25'4 9.0
2017-Sep-24 00:31N 31°06' E 122°20'612.2
2017-Sep-24 00:00N 31°09' E 122°14'714.5
2017-Sep-23 23:30N 31°13' E 122°07'714.2
2017-Sep-23 23:00N 31°15' E 121°59'714.9
2017-Sep-23 22:30N 31°17' E 121°50'713.1
2017-Sep-23 22:00N 31°19' E 121°43'611.8
2017-Sep-23 21:30N 31°22' E 121°37'611.5
2017-Sep-23 21:00N 31°25' E 121°31'4 9.0
2017-Sep-23 20:30N 31°28' E 121°27'611.5
2017-Sep-23 20:00N 31°31' E 121°22'  
2017-Sep-18 07:14N 32°06' E 119°55'311.3
2017-Sep-18 06:59N 32°03' E 119°56'510.9
2017-Sep-18 06:29N 31°59' E 120°00'510.8
2017-Sep-18 06:00N 31°57' E 120°06'4 9.1
2017-Sep-18 05:30N 31°56' E 120°11'4 8.1
2017-Sep-18 05:00N 31°57' E 120°16'4 8.1
2017-Sep-18 04:29N 31°59' E 120°20'4 8.3
2017-Sep-18 03:59N 32°01' E 120°24'4 7.4
2017-Sep-18 03:29N 32°02' E 120°29'4 7.9
2017-Sep-18 02:58N 32°01' E 120°33'4 7.6
2017-Sep-18 02:27N 31°60' E 120°38'12 5.9
2017-Sep-18 00:23N 31°57' E 120°52'12 6.9
2017-Sep-17 22:43N 31°47' E 120°57'1 6.5
2017-Sep-17 22:30N 31°47' E 120°59'3 6.1
2017-Sep-17 22:01N 31°46' E 121°02'4 7.0
2017-Sep-17 21:30N 31°45' E 121°06'3 6.8
2017-Sep-17 21:01N 31°42' E 121°09'4 7.1
2017-Sep-17 20:31N 31°40' E 121°12'4 7.4
2017-Sep-17 20:00N 31°38' E 121°15'4 7.7
2017-Sep-17 19:30N 31°35' E 121°18'4 7.9
2017-Sep-17 19:01N 31°32' E 121°22'4 8.8
2017-Sep-17 18:30N 31°30' E 121°26'4 8.8
2017-Sep-17 18:01N 31°26' E 121°29'3 6.0
2017-Sep-17 17:30N 31°25' E 121°32'5 9.2
2017-Sep-17 17:00N 31°22' E 121°37'5 9.8
2017-Sep-17 16:30N 31°20' E 121°42'5 9.3
2017-Sep-17 16:00N 31°18' E 121°47'5 9.6
2017-Sep-17 15:30N 31°16' E 121°52'510.2
2017-Sep-17 15:01N 31°15' E 121°58'510.1
2017-Sep-17 14:30N 31°14' E 122°04'5 9.3
2017-Sep-17 14:00N 31°12' E 122°09'510.5
2017-Sep-17 13:31N 31°09' E 122°14'510.3
2017-Sep-17 13:00N 31°06' E 122°19'4 7.5
2017-Sep-17 12:30N 31°07' E 122°23'  

Dump ship's entire track history